Time;durP1;ratioP1;P1;durP2;ratioP2;P2;SDS_P1;SDS_P2;PMS_P1;PMS_P2;Temp;Humidity;BMP_temperature;BMP_pressure;BME280_temperature;BME280_humidity;BME280_pressure;Samples;Min_cycle;Max_cycle;Signal;HPM_P1;HPM_P2
2022/08/02 00:00:15;;;;;;;2.90;0.75;;;17.40;99.90;;;;;;4830819;29;20938;-37
2022/08/02 00:02:42;;;;;;;4.55;0.85;;;17.50;99.90;;;;;;4830181;29;20029;-40
2022/08/02 00:05:08;;;;;;;3.33;1.35;;;17.50;99.90;;;;;;4827294;29;20751;-31
2022/08/02 00:07:35;;;;;;;5.17;1.20;;;17.40;99.90;;;;;;4824983;29;20022;-41
2022/08/02 00:10:01;;;;;;;1.90;0.80;;;17.50;99.90;;;;;;4823239;29;20287;-37
2022/08/02 00:12:27;;;;;;;4.28;0.77;;;17.40;99.90;;;;;;4821993;29;20046;-38
2022/08/02 00:14:52;;;;;;;4.53;0.85;;;17.40;99.90;;;;;;4826185;29;20423;-36
2022/08/02 00:17:18;;;;;;;2.75;0.70;;;17.30;99.90;;;;;;4828726;29;20034;-42
2022/08/02 00:19:44;;;;;;;1.15;0.70;;;17.30;99.90;;;;;;4826368;29;20723;-37
2022/08/02 00:22:10;;;;;;;1.73;0.95;;;17.20;99.90;;;;;;4829944;29;20543;-39
2022/08/02 00:24:35;;;;;;;2.45;0.80;;;17.20;99.90;;;;;;4823819;29;20029;-39
2022/08/02 00:27:06;;;;;;;1.63;0.55;;;17.20;99.90;;;;;;4825919;29;20064;-36
2022/08/02 00:29:32;;;;;;;4.18;1.00;;;17.20;99.90;;;;;;4824276;29;20427;-32
2022/08/02 00:31:58;;;;;;;2.55;1.00;;;17.10;99.90;;;;;;4830682;29;20042;-35
2022/08/02 00:34:24;;;;;;;1.38;0.77;;;17.10;99.90;;;;;;4828497;29;20033;-34
2022/08/02 00:36:50;;;;;;;2.72;1.15;;;17.20;99.90;;;;;;4830072;29;20124;-34
2022/08/02 00:39:15;;;;;;;0.57;0.50;;;17.20;99.90;;;;;;4824984;29;20522;-37
2022/08/02 00:41:47;;;;;;;3.28;0.85;;;17.20;99.90;;;;;;4809510;29;21320;-37
2022/08/02 00:44:13;;;;;;;3.42;0.65;;;17.20;99.90;;;;;;4827602;29;20053;-37
2022/08/02 00:46:39;;;;;;;1.80;0.88;;;17.20;99.90;;;;;;4830277;29;20025;-39
2022/08/02 00:49:04;;;;;;;3.90;1.23;;;17.30;99.90;;;;;;4830548;29;20576;-33
2022/08/02 00:51:30;;;;;;;3.03;1.00;;;17.30;99.90;;;;;;4829090;29;20034;-36
2022/08/02 00:53:55;;;;;;;0.95;0.50;;;17.30;99.90;;;;;;4831629;29;20501;-37
2022/08/02 00:56:21;;;;;;;2.08;0.60;;;17.30;99.90;;;;;;4828697;29;20606;-35
2022/08/02 00:58:47;;;;;;;2.17;0.75;;;17.30;99.90;;;;;;4834310;29;20145;-37
2022/08/02 01:01:14;;;;;;;0.55;0.30;;;17.30;99.90;;;;;;4832243;29;20724;-32
2022/08/02 01:03:39;;;;;;;2.10;0.70;;;17.30;99.90;;;;;;4834257;29;20025;-37
2022/08/02 01:06:05;;;;;;;5.32;0.80;;;17.30;99.90;;;;;;4834540;29;20493;-37
2022/08/02 01:08:31;;;;;;;1.98;0.55;;;17.30;99.90;;;;;;4829087;29;20424;-37
2022/08/02 01:10:56;;;;;;;1.88;0.70;;;17.30;99.90;;;;;;4834321;29;20041;-36
2022/08/02 01:13:22;;;;;;;3.83;1.17;;;17.30;99.90;;;;;;4832182;29;20565;-36
2022/08/02 01:15:59;;;;;;;2.15;0.57;;;17.30;99.90;;;;;;4833926;29;20033;-42
2022/08/02 01:18:33;;;;;;;4.57;0.90;;;17.30;99.90;;;;;;4830788;29;20220;-37
2022/08/02 01:21:16;;;;;;;2.28;0.60;;;17.30;99.90;;;;;;4836406;29;20025;-55
2022/08/02 01:23:54;;;;;;;1.95;0.70;;;17.20;99.90;;;;;;4813599;29;20056;-41
2022/08/02 01:26:38;;;;;;;2.47;0.60;;;17.20;99.90;;;;;;4832288;29;20040;-34
2022/08/02 01:29:13;;;;;;;3.15;0.60;;;17.20;99.90;;;;;;4836684;29;20368;-35
2022/08/02 01:31:43;;;;;;;2.05;0.80;;;17.20;99.90;;;;;;4835254;29;20593;-36
2022/08/02 01:34:38;;;;;;;2.28;0.60;;;17.20;99.90;;;;;;4836545;29;20026;-36
2022/08/02 01:37:07;;;;;;;4.50;0.77;;;17.20;99.90;;;;;;4838917;29;20491;-36
2022/08/02 01:39:35;;;;;;;10.10;2.03;;;17.20;99.90;;;;;;4838553;29;20033;-34
2022/08/02 01:42:01;;;;;;;0.60;0.60;;;17.30;99.90;;;;;;4829474;29;20038;-33
2022/08/02 01:44:32;;;;;;;7.50;0.83;;;17.30;99.90;;;;;;4841403;29;20030;-32
2022/08/02 01:47:03;;;;;;;4.47;0.80;;;17.30;99.90;;;;;;4842249;29;20437;-33
2022/08/02 01:49:31;;;;;;;2.75;0.95;;;17.30;99.90;;;;;;4839438;29;20026;-36
2022/08/02 01:54:45;;;;;;;0.85;0.57;;;17.30;99.90;;;;;;4840584;29;20426;-43
2022/08/02 01:57:13;;;;;;;3.70;0.75;;;17.30;99.90;;;;;;4836731;29;20037;-39
2022/08/02 01:59:41;;;;;;;1.25;0.80;;;17.40;99.90;;;;;;4817937;29;20044;-38
2022/08/02 02:02:08;;;;;;;0.85;0.60;;;17.40;99.90;;;;;;4841196;29;20029;-35
2022/08/02 02:04:35;;;;;;;2.47;0.93;;;17.40;99.90;;;;;;4841132;29;20018;-40
2022/08/02 02:07:02;;;;;;;2.58;0.90;;;17.30;99.90;;;;;;4819458;29;20580;-38
2022/08/02 02:09:30;;;;;;;0.70;0.70;;;17.30;99.90;;;;;;4838572;29;20094;-40
2022/08/02 02:11:58;;;;;;;6.07;1.25;;;17.30;99.90;;;;;;4840785;29;20399;-34
2022/08/02 02:14:24;;;;;;;;;;;17.20;99.90;;;;;;4835001;29;20601;-36
2022/08/02 02:16:51;;;;;;;3.03;1.00;;;17.20;99.90;;;;;;4835572;29;20696;-35
2022/08/02 02:19:20;;;;;;;4.68;1.13;;;17.10;99.90;;;;;;4838758;29;20527;-39
2022/08/02 02:21:46;;;;;;;3.38;1.20;;;17.00;99.90;;;;;;4834410;29;20037;-32
2022/08/02 02:24:12;;;;;;;1.33;1.23;;;17.00;99.90;;;;;;4840070;29;20542;-36
2022/08/02 02:26:41;;;;;;;1.25;1.13;;;16.90;99.90;;;;;;4837611;29;20060;-48
2022/08/02 02:29:10;;;;;;;2.55;0.88;;;16.90;99.90;;;;;;4837105;29;20470;-38
2022/08/02 02:31:38;;;;;;;8.55;1.05;;;16.90;99.90;;;;;;4839917;29;20029;-37
2022/08/02 02:34:18;;;;;;;1.08;0.93;;;16.90;99.90;;;;;;4813704;29;20042;-35
2022/08/02 02:36:49;;;;;;;6.47;1.50;;;16.90;99.90;;;;;;4818586;29;20141;-36
2022/08/02 02:39:19;;;;;;;3.38;1.40;;;16.90;99.90;;;;;;4835694;29;20081;-34
2022/08/02 02:41:47;;;;;;;7.45;1.27;;;16.80;99.90;;;;;;4817431;29;20034;-32
2022/08/02 02:44:17;;;;;;;6.63;1.48;;;16.80;99.90;;;;;;4837706;29;20054;-37
2022/08/02 02:47:02;;;;;;;1.15;0.90;;;16.80;99.90;;;;;;4839134;29;20059;-38
2022/08/02 02:49:31;;;;;;;3.38;1.38;;;16.80;99.90;;;;;;4835951;29;20032;-43
2022/08/02 02:51:58;;;;;;;5.75;1.50;;;16.90;99.90;;;;;;4839077;29;20140;-37
2022/08/02 02:54:25;;;;;;;5.60;1.30;;;16.90;99.90;;;;;;4837286;29;20045;-38
2022/08/02 02:56:52;;;;;;;4.60;1.42;;;16.90;99.90;;;;;;4833966;29;20514;-34
2022/08/02 02:59:18;;;;;;;10.32;1.20;;;16.90;99.90;;;;;;4841410;29;20823;-37
2022/08/02 03:01:44;;;;;;;8.45;1.27;;;16.90;99.90;;;;;;4840971;29;20037;-36
2022/08/02 03:04:11;;;;;;;2.97;1.50;;;16.90;99.90;;;;;;4837076;29;20066;-38
2022/08/02 03:06:38;;;;;;;2.95;1.25;;;17.00;99.90;;;;;;4839581;29;20486;-34
2022/08/02 03:09:04;;;;;;;1.10;0.70;;;16.90;99.90;;;;;;4838684;29;20202;-37
2022/08/02 03:11:31;;;;;;;2.17;0.82;;;16.90;99.90;;;;;;4839270;29;20038;-32
2022/08/02 03:13:58;;;;;;;4.15;1.00;;;17.00;99.90;;;;;;4835411;29;20030;-37
2022/08/02 03:16:24;;;;;;;;;;;17.00;99.90;;;;;;4843421;29;20034;-32
2022/08/02 03:18:50;;;;;;;2.10;1.30;;;17.00;99.90;;;;;;4819474;29;20007;-33
2022/08/02 03:21:16;;;;;;;7.00;1.63;;;17.00;99.90;;;;;;4839859;29;20064;-34
2022/08/02 03:23:43;;;;;;;2.28;1.30;;;17.00;99.90;;;;;;4839391;29;20448;-47
2022/08/02 03:26:09;;;;;;;5.63;1.13;;;17.00;99.90;;;;;;4847018;29;20101;-35
2022/08/02 03:28:35;;;;;;;4.13;1.35;;;17.00;99.90;;;;;;4840100;29;20645;-36
2022/08/02 03:31:01;;;;;;;2.13;1.50;;;17.00;99.90;;;;;;4842414;29;20044;-39
2022/08/02 03:33:27;;;;;;;3.95;1.27;;;17.00;99.90;;;;;;4820007;29;20129;-34
2022/08/02 03:35:57;;;;;;;7.28;1.55;;;17.00;99.90;;;;;;4827737;29;20069;-39
2022/08/02 03:38:25;;;;;;;1.63;1.40;;;17.00;99.90;;;;;;4832383;29;20116;-37
2022/08/02 03:40:51;;;;;;;2.50;1.23;;;17.00;99.90;;;;;;4838764;29;20086;-33
2022/08/02 03:43:17;;;;;;;3.28;1.30;;;17.10;99.90;;;;;;4839812;29;20049;-34
2022/08/02 03:45:46;;;;;;;1.05;0.93;;;17.10;99.90;;;;;;4839899;29;20461;-39
2022/08/02 03:48:14;;;;;;;3.55;1.40;;;17.00;99.90;;;;;;4842145;29;20603;-34
2022/08/02 03:50:41;;;;;;;4.57;1.48;;;17.10;99.90;;;;;;4839299;29;20514;-40
2022/08/02 03:53:07;;;;;;;2.70;1.80;;;17.10;99.90;;;;;;4837442;29;20029;-40
2022/08/02 03:55:33;;;;;;;4.03;1.33;;;17.00;99.90;;;;;;4838263;29;20038;-35
2022/08/02 03:57:59;;;;;;;2.13;1.58;;;17.00;99.90;;;;;;4843504;29;20033;-33
2022/08/02 04:00:25;;;;;;;2.20;1.20;;;17.00;99.90;;;;;;4839414;29;20046;-35
2022/08/02 04:02:51;;;;;;;3.10;1.55;;;16.90;99.90;;;;;;4837381;29;20029;-34
2022/08/02 04:05:18;;;;;;;3.58;1.05;;;16.90;99.90;;;;;;4838011;29;20053;-40
2022/08/02 04:07:44;;;;;;;1.35;1.10;;;16.90;99.90;;;;;;4840534;29;20025;-50
2022/08/02 04:10:09;;;;;;;2.97;1.40;;;16.90;99.90;;;;;;4844298;29;20029;-34
2022/08/02 04:12:35;;;;;;;4.85;2.05;;;16.90;99.90;;;;;;4839701;29;20040;-43
2022/08/02 04:15:05;;;;;;;7.20;1.83;;;16.90;99.90;;;;;;4837072;29;20533;-33
2022/08/02 04:17:33;;;;;;;1.60;1.23;;;17.00;99.90;;;;;;4841266;29;20538;-39
2022/08/02 04:20:08;;;;;;;3.08;1.67;;;17.00;99.90;;;;;;4840756;29;20090;-32
2022/08/02 04:22:39;;;;;;;2.78;1.60;;;17.00;99.90;;;;;;4838767;29;20077;-38
2022/08/02 04:25:07;;;;;;;4.88;1.58;;;17.00;99.90;;;;;;4836096;29;20069;-32
2022/08/02 04:27:35;;;;;;;2.22;1.35;;;17.00;99.90;;;;;;4826449;29;20086;-39
2022/08/02 04:30:03;;;;;;;4.88;1.33;;;16.90;99.90;;;;;;4839677;29;20029;-38
2022/08/02 04:32:29;;;;;;;7.50;1.85;;;16.90;99.90;;;;;;4839182;29;20098;-36
2022/08/02 04:34:56;;;;;;;6.75;1.60;;;16.90;99.90;;;;;;4839706;29;20050;-46
2022/08/02 04:37:22;;;;;;;5.45;1.45;;;16.90;99.90;;;;;;4818518;29;20613;-38
2022/08/02 04:39:47;;;;;;;2.28;1.60;;;16.90;99.90;;;;;;4838786;29;20046;-33
2022/08/02 04:42:20;;;;;;;2.25;1.60;;;16.90;99.90;;;;;;4836838;29;20050;-35
2022/08/02 04:44:46;;;;;;;4.50;1.42;;;16.90;99.90;;;;;;4820382;29;20029;-36
2022/08/02 04:47:12;;;;;;;7.20;1.33;;;16.90;99.90;;;;;;4832424;29;20521;-33
2022/08/02 04:49:38;;;;;;;6.22;2.05;;;16.90;99.90;;;;;;4842522;29;20037;-41
2022/08/02 04:52:03;;;;;;;3.72;1.38;;;16.80;99.90;;;;;;4819168;29;20482;-38
2022/08/02 04:54:29;;;;;;;4.13;1.50;;;16.80;99.90;;;;;;4837455;29;20029;-48
2022/08/02 04:56:55;;;;;;;5.93;1.75;;;16.90;99.90;;;;;;4834152;29;20060;-35
2022/08/02 04:59:21;;;;;;;2.67;2.25;;;16.90;99.90;;;;;;4834109;29;20376;-38
2022/08/02 05:01:47;;;;;;;3.33;1.55;;;17.00;99.90;;;;;;4847096;29;20510;-38
2022/08/02 05:04:12;;;;;;;3.65;1.73;;;16.90;99.90;;;;;;4845099;29;20037;-34
2022/08/02 05:06:38;;;;;;;3.85;1.98;;;17.00;99.90;;;;;;4843081;29;20407;-37
2022/08/02 05:09:04;;;;;;;9.82;1.88;;;17.00;99.90;;;;;;4841775;29;20037;-38
2022/08/02 05:11:30;;;;;;;9.32;2.40;;;17.00;99.90;;;;;;4838768;29;20495;-35
2022/08/02 05:13:55;;;;;;;3.42;2.15;;;17.00;99.90;;;;;;4841957;29;20044;-41
2022/08/02 05:16:21;;;;;;;2.83;1.60;;;17.00;99.90;;;;;;4837827;29;20121;-37
2022/08/02 05:18:47;;;;;;;2.95;1.58;;;17.00;99.90;;;;;;4836205;29;20088;-34
2022/08/02 05:21:12;;;;;;;5.43;1.80;;;17.00;99.90;;;;;;4838372;29;20021;-38
2022/08/02 05:23:38;;;;;;;5.07;2.03;;;17.00;99.90;;;;;;4837702;29;20418;-33
2022/08/02 05:26:04;;;;;;;5.32;1.77;;;17.00;99.90;;;;;;4819770;29;20052;-34
2022/08/02 05:28:29;;;;;;;4.45;1.63;;;17.00;99.90;;;;;;4821657;29;20423;-38
2022/08/02 05:30:55;;;;;;;3.75;2.08;;;17.10;99.90;;;;;;4823965;29;20078;-35
2022/08/02 05:33:20;;;;;;;3.28;2.10;;;17.20;99.90;;;;;;4840428;29;20943;-37
2022/08/02 05:35:46;;;;;;;1.92;1.58;;;17.20;99.90;;;;;;4835596;29;20037;-37
2022/08/02 05:38:11;;;;;;;5.95;1.92;;;17.30;99.90;;;;;;4820823;29;20081;-34
2022/08/02 05:40:37;;;;;;;11.13;2.83;;;17.30;99.90;;;;;;4843010;29;20067;-39
2022/08/02 05:43:12;;;;;;;5.60;2.10;;;17.40;99.90;;;;;;4837761;29;20049;-35
2022/08/02 05:45:37;;;;;;;4.53;1.73;;;17.60;99.90;;;;;;4838755;29;20112;-35
2022/08/02 05:48:03;;;;;;;6.00;2.33;;;17.60;99.90;;;;;;4836450;29;20125;-37
2022/08/02 05:50:30;;;;;;;5.10;1.67;;;17.80;99.90;;;;;;4836663;29;20037;-38
2022/08/02 05:53:00;;;;;;;2.97;2.05;;;17.90;99.90;;;;;;4837431;29;20030;-41
2022/08/02 05:55:29;;;;;;;2.97;1.92;;;18.00;99.90;;;;;;4841709;29;20037;-38
2022/08/02 05:58:17;;;;;;;4.28;1.95;;;18.10;99.90;;;;;;4833980;29;20069;-33
2022/08/02 06:00:48;;;;;;;6.13;1.67;;;18.00;99.90;;;;;;4833827;29;20033;-36
2022/08/02 06:03:20;;;;;;;2.08;1.73;;;18.10;99.90;;;;;;4835826;29;20034;-37
2022/08/02 06:06:09;;;;;;;7.30;2.47;;;18.10;99.90;;;;;;4840247;29;20096;-38
2022/08/02 06:08:42;;;;;;;2.50;1.88;;;18.10;99.90;;;;;;4839022;29;20038;-36
2022/08/02 06:11:11;;;;;;;11.13;3.28;;;18.30;99.90;;;;;;4838894;29;20041;-36
2022/08/02 06:13:38;;;;;;;4.60;2.20;;;18.40;99.90;;;;;;4837627;29;20546;-38
2022/08/02 06:16:04;;;;;;;9.95;1.48;;;18.50;99.90;;;;;;4839417;29;20037;-36
2022/08/02 06:18:32;;;;;;;5.03;2.33;;;18.70;99.90;;;;;;4834434;29;20498;-38
2022/08/02 06:21:01;;;;;;;3.92;2.47;;;18.80;99.90;;;;;;4838381;29;20109;-43
2022/08/02 06:23:28;;;;;;;3.70;2.22;;;18.80;99.90;;;;;;4837130;29;20097;-36
2022/08/02 06:25:56;;;;;;;8.88;2.95;;;18.90;99.90;;;;;;4844392;29;20038;-38
2022/08/02 06:28:23;;;;;;;4.50;2.88;;;19.00;99.90;;;;;;4837635;29;20033;-38
2022/08/02 06:30:49;;;;;;;6.15;2.63;;;19.50;99.90;;;;;;4836453;29;20030;-34
2022/08/02 06:33:15;;;;;;;5.47;2.70;;;20.10;99.90;;;;;;4838437;29;20033;-37
2022/08/02 06:36:20;;;;;;;9.93;2.28;;;21.00;99.90;;;;;;4838510;29;20037;-33
2022/08/02 06:39:02;;;;;;;6.40;3.03;;;22.60;99.90;;;;;;4839984;29;20118;-37
2022/08/02 06:41:36;;;;;;;6.85;2.83;;;24.40;99.60;;;;;;4833815;29;20026;-40
2022/08/02 06:44:03;;;;;;;5.95;2.83;;;25.20;98.60;;;;;;4816336;29;20411;-36
2022/08/02 06:46:29;;;;;;;5.40;2.57;;;25.70;98.00;;;;;;4833057;29;20379;-33
2022/08/02 06:48:56;;;;;;;4.68;2.53;;;26.10;97.60;;;;;;4835772;29;20121;-33
2022/08/02 06:51:22;;;;;;;4.32;2.53;;;26.50;97.40;;;;;;4832238;29;20045;-32
2022/08/02 06:53:48;;;;;;;9.55;3.35;;;26.40;97.20;;;;;;4838145;29;20099;-35
2022/08/02 06:56:13;;;;;;;8.27;3.10;;;26.20;97.30;;;;;;4836220;29;20441;-34
2022/08/02 06:58:39;;;;;;;5.95;3.17;;;26.10;97.60;;;;;;4841107;29;20038;-36
2022/08/02 07:01:06;;;;;;;7.38;2.90;;;26.10;97.50;;;;;;4835648;29;20132;-36
2022/08/02 07:03:38;;;;;;;4.03;3.20;;;26.30;97.60;;;;;;4833445;29;20482;-39
2022/08/02 07:06:08;;;;;;;11.15;3.60;;;26.30;97.50;;;;;;4835670;29;20341;-35
2022/08/02 07:08:37;;;;;;;7.75;3.72;;;25.80;98.00;;;;;;4831065;29;20440;-37
2022/08/02 07:11:03;;;;;;;6.00;2.92;;;25.60;98.40;;;;;;4844022;29;20495;-38
2022/08/02 07:13:29;;;;;;;6.93;4.20;;;25.30;98.70;;;;;;4831902;29;20098;-36
2022/08/02 07:15:55;;;;;;;7.70;3.97;;;25.10;99.00;;;;;;4830674;29;20038;-35
2022/08/02 07:18:24;;;;;;;8.48;4.22;;;25.00;99.10;;;;;;4840021;29;20029;-36
2022/08/02 07:20:50;;;;;;;9.48;4.38;;;25.20;99.20;;;;;;4837274;29;20834;-40
2022/08/02 07:23:16;;;;;;;8.02;4.57;;;25.10;99.20;;;;;;4834426;29;20506;-36
2022/08/02 07:25:41;;;;;;;8.63;4.00;;;24.60;99.70;;;;;;4840752;29;20042;-41
2022/08/02 07:28:11;;;;;;;9.63;3.90;;;24.40;99.90;;;;;;4835645;29;20526;-38
2022/08/02 07:30:37;;;;;;;9.02;4.75;;;24.30;99.90;;;;;;4838619;29;20372;-38
2022/08/02 07:33:03;;;;;;;7.95;4.07;;;24.10;99.90;;;;;;4837324;29;20483;-36
2022/08/02 07:35:29;;;;;;;13.15;4.75;;;23.80;99.90;;;;;;4831770;29;20041;-37
2022/08/02 07:37:55;;;;;;;12.80;4.85;;;23.50;99.90;;;;;;4839201;29;20045;-34
2022/08/02 07:40:21;;;;;;;12.05;5.20;;;23.40;99.90;;;;;;4834782;29;20038;-34
2022/08/02 07:42:50;;;;;;;6.68;4.82;;;23.40;99.90;;;;;;4838512;29;20050;-37
2022/08/02 07:45:16;;;;;;;11.95;4.45;;;23.30;99.90;;;;;;4843346;29;20033;-39
2022/08/02 07:47:43;;;;;;;9.18;4.78;;;23.30;99.90;;;;;;4831131;29;20437;-37
2022/08/02 07:50:10;;;;;;;8.48;4.30;;;23.40;99.90;;;;;;4834067;29;20113;-35
2022/08/02 07:52:36;;;;;;;12.05;4.60;;;23.60;99.90;;;;;;4833551;29;20825;-38
2022/08/02 07:55:02;;;;;;;10.00;4.72;;;23.80;99.90;;;;;;4836827;29;20632;-37
2022/08/02 07:57:28;;;;;;;11.02;4.93;;;23.80;99.90;;;;;;4840950;29;20034;-35
2022/08/02 07:59:54;;;;;;;9.38;4.70;;;23.90;99.90;;;;;;4839769;29;20037;-30
2022/08/02 08:02:19;;;;;;;4.63;3.78;;;24.00;99.90;;;;;;4844314;29;20033;-36
2022/08/02 08:04:45;;;;;;;9.43;3.97;;;24.10;99.90;;;;;;4845632;29;20093;-38
2022/08/02 08:07:10;;;;;;;6.97;3.72;;;24.30;99.90;;;;;;4835763;29;20040;-40
2022/08/02 08:09:40;;;;;;;6.35;3.70;;;24.30;99.90;;;;;;4835269;29;20030;-35
2022/08/02 08:12:07;;;;;;;4.70;2.83;;;24.20;99.90;;;;;;4843813;29;20041;-40
2022/08/02 08:14:33;;;;;;;7.40;2.83;;;24.30;99.90;;;;;;4845656;29;20465;-40
2022/08/02 08:16:59;;;;;;;6.40;3.85;;;24.40;99.90;;;;;;4842541;29;20037;-37
2022/08/02 08:19:24;;;;;;;8.77;3.28;;;24.50;99.90;;;;;;4832086;29;20706;-37
2022/08/02 08:21:50;;;;;;;5.13;3.55;;;24.60;99.90;;;;;;4837611;29;20383;-42
2022/08/02 08:24:16;;;;;;;7.30;3.55;;;24.70;99.90;;;;;;4838414;29;20079;-36
2022/08/02 08:26:42;;;;;;;6.20;3.03;;;24.80;99.90;;;;;;4833167;29;20034;-38
2022/08/02 08:29:07;;;;;;;4.95;3.22;;;25.10;99.90;;;;;;4835726;29;20036;-36
2022/08/02 08:31:33;;;;;;;6.35;3.17;;;25.30;99.90;;;;;;4826617;29;20049;-39
2022/08/02 08:33:59;;;;;;;2.72;2.50;;;25.70;99.90;;;;;;4841829;29;20034;-32
2022/08/02 08:36:25;;;;;;;4.47;2.47;;;26.00;99.90;;;;;;4836479;29;20558;-37
2022/08/02 08:38:51;;;;;;;3.72;2.63;;;26.00;99.90;;;;;;4842481;29;20037;-36
2022/08/02 08:41:18;;;;;;;2.88;2.10;;;25.90;99.90;;;;;;4840075;29;20026;-36
2022/08/02 08:43:45;;;;;;;3.58;3.03;;;25.90;99.90;;;;;;4832956;29;20681;-35
2022/08/02 08:46:16;;;;;;;3.70;2.25;;;26.00;99.90;;;;;;4833420;29;20044;-41
2022/08/02 08:48:45;;;;;;;6.90;3.15;;;26.30;99.90;;;;;;4837161;29;20558;-32
2022/08/02 08:51:17;;;;;;;3.63;3.10;;;26.40;99.80;;;;;;4837937;29;20038;-40
2022/08/02 08:53:45;;;;;;;5.15;3.60;;;26.40;99.90;;;;;;4837525;29;20033;-33
2022/08/02 08:56:12;;;;;;;4.90;3.03;;;26.50;99.90;;;;;;4843218;29;20510;-39
2022/08/02 08:58:40;;;;;;;4.50;3.35;;;26.60;99.90;;;;;;4834704;29;20475;-39
2022/08/02 09:01:06;;;;;;;6.60;3.58;;;26.80;99.50;;;;;;4834256;29;20045;-34
2022/08/02 09:03:32;;;;;;;3.75;3.33;;;27.10;99.80;;;;;;4820825;29;20628;-36
2022/08/02 09:05:58;;;;;;;5.57;4.20;;;27.30;99.70;;;;;;4836309;29;20116;-33
2022/08/02 09:08:24;;;;;;;8.23;4.80;;;27.50;99.50;;;;;;4839578;29;20085;-33
2022/08/02 09:10:50;;;;;;;6.03;3.40;;;27.60;99.30;;;;;;4839872;29;20562;-44
2022/08/02 09:13:19;;;;;;;11.60;4.68;;;27.80;99.70;;;;;;4835679;29;20037;-40
2022/08/02 09:15:56;;;;;;;7.30;4.97;;;27.80;99.50;;;;;;4836535;29;20037;-37
2022/08/02 09:18:38;;;;;;;7.13;4.97;;;27.70;99.50;;;;;;4831990;29;20037;-38
2022/08/02 09:21:08;;;;;;;7.35;5.40;;;27.80;99.60;;;;;;4836116;29;20040;-39
2022/08/02 09:23:41;;;;;;;9.50;5.53;;;27.90;99.20;;;;;;4840033;29;20041;-34
2022/08/02 09:26:09;;;;;;;8.23;5.25;;;27.80;99.20;;;;;;4835725;29;20109;-45
2022/08/02 09:28:41;;;;;;;9.65;5.63;;;27.70;99.30;;;;;;4816002;29;20046;-34
2022/08/02 09:31:17;;;;;;;9.70;5.47;;;27.60;99.60;;;;;;4840246;29;20034;-40
2022/08/02 09:33:44;;;;;;;11.00;5.57;;;27.30;99.90;;;;;;4837116;29;20626;-41
2022/08/02 09:36:12;;;;;;;9.63;6.53;;;27.00;99.90;;;;;;4840318;29;20428;-35
2022/08/02 09:38:39;;;;;;;7.82;5.78;;;26.70;99.90;;;;;;4835544;29;20534;-32
2022/08/02 09:41:18;;;;;;;6.65;4.72;;;26.60;99.90;;;;;;4840230;29;20041;-41
2022/08/02 09:43:44;;;;;;;12.70;6.22;;;26.50;99.90;;;;;;4842184;29;20077;-43
2022/08/02 09:46:16;;;;;;;11.80;5.65;;;26.40;99.90;;;;;;4839630;29;20044;-33
2022/08/02 09:48:47;;;;;;;7.80;4.63;;;26.40;99.90;;;;;;4841849;29;20112;-41
2022/08/02 09:51:16;;;;;;;6.63;4.85;;;26.30;99.90;;;;;;4835061;29;20068;-36
2022/08/02 09:53:42;;;;;;;5.18;4.20;;;26.20;99.90;;;;;;4842666;29;20038;-37
2022/08/02 09:56:08;;;;;;;5.13;4.53;;;26.40;99.90;;;;;;4818337;29;20510;-35
2022/08/02 09:58:38;;;;;;;6.03;4.13;;;26.30;99.90;;;;;;4846213;29;20036;-39
2022/08/02 10:01:04;;;;;;;6.57;3.92;;;26.30;99.90;;;;;;4834415;29;20026;-37
2022/08/02 10:03:29;;;;;;;7.45;3.83;;;26.20;99.90;;;;;;4830758;29;20033;-34
2022/08/02 10:06:00;;;;;;;9.00;3.63;;;26.20;99.90;;;;;;4835614;29;20497;-38
2022/08/02 10:08:27;;;;;;;5.22;3.55;;;26.30;99.90;;;;;;4841412;29;20414;-37
2022/08/02 10:11:00;;;;;;;3.88;3.38;;;26.30;99.90;;;;;;4833516;29;20398;-39
2022/08/02 10:13:27;;;;;;;3.70;2.47;;;26.60;99.90;;;;;;4837132;29;20046;-35
2022/08/02 10:15:54;;;;;;;3.55;2.60;;;26.70;99.90;;;;;;4834099;29;20518;-36
2022/08/02 10:18:20;;;;;;;4.25;2.45;;;26.70;99.90;;;;;;4838900;29;20482;-40
2022/08/02 10:20:48;;;;;;;2.97;2.70;;;26.80;99.90;;;;;;4845910;29;20028;-36
2022/08/02 10:23:15;;;;;;;11.27;4.07;;;27.00;99.80;;;;;;4832247;29;20479;-39
2022/08/02 10:25:43;;;;;;;6.35;2.95;;;27.30;99.30;;;;;;4848406;29;20029;-38
2022/08/02 10:28:11;;;;;;;4.70;3.00;;;27.80;99.30;;;;;;4840752;29;20029;-33
2022/08/02 10:30:41;;;;;;;2.47;2.28;;;28.20;98.40;;;;;;4839016;29;20650;-36
2022/08/02 10:33:09;;;;;;;3.70;2.72;;;28.20;98.00;;;;;;4829709;29;20037;-36
2022/08/02 10:35:37;;;;;;;2.30;2.10;;;27.90;98.60;;;;;;4837230;29;20478;-32
2022/08/02 10:38:06;;;;;;;3.45;2.60;;;27.80;98.40;;;;;;4832538;29;20398;-36
2022/08/02 10:40:47;;;;;;;3.50;2.60;;;27.70;98.50;;;;;;4833509;29;20105;-36
2022/08/02 10:43:35;;;;;;;2.90;2.03;;;27.50;98.30;;;;;;4842173;29;20150;-37
2022/08/02 10:46:28;;;;;;;2.55;2.20;;;27.60;98.20;;;;;;4834428;29;20033;-40
2022/08/02 10:49:08;;;;;;;2.03;1.73;;;27.80;98.00;;;;;;4840654;29;20041;-38
2022/08/02 10:52:01;;;;;;;3.35;1.70;;;27.90;97.70;;;;;;4829507;29;20475;-35
2022/08/02 10:54:30;;;;;;;1.77;1.67;;;28.10;97.10;;;;;;4840152;29;20307;-36
2022/08/02 10:56:57;;;;;;;2.90;2.00;;;28.10;97.10;;;;;;4837069;29;20042;-35
2022/08/02 10:59:27;;;;;;;;;;;28.20;96.80;;;;;;4814294;29;20038;-38
2022/08/02 11:02:00;;;;;;;2.85;2.13;;;28.20;96.80;;;;;;4816506;29;20393;-36
2022/08/02 11:04:35;;;;;;;1.88;1.77;;;28.30;96.80;;;;;;4836871;29;20386;-36
2022/08/02 11:07:09;;;;;;;2.80;2.17;;;28.10;96.90;;;;;;4835515;29;20200;-36
2022/08/02 11:09:36;;;;;;;2.13;1.92;;;28.00;96.90;;;;;;4834315;29;20033;-37
2022/08/02 11:12:07;;;;;;;3.45;1.92;;;27.90;96.60;;;;;;4836112;29;20046;-38
2022/08/02 11:14:34;;;;;;;4.40;1.88;;;27.90;96.90;;;;;;4829467;29;20105;-36
2022/08/02 11:17:04;;;;;;;2.28;2.08;;;28.00;96.50;;;;;;4833445;29;20041;-32
2022/08/02 11:19:31;;;;;;;1.63;1.40;;;28.00;96.20;;;;;;4818881;29;20121;-37
2022/08/02 11:22:18;;;;;;;7.05;2.00;;;28.10;96.50;;;;;;4832494;29;20260;-39
2022/08/02 11:24:46;;;;;;;1.50;1.40;;;28.10;96.30;;;;;;4840257;29;20523;-39
2022/08/02 11:27:19;;;;;;;8.55;1.48;;;28.20;96.10;;;;;;4831122;29;20540;-34
2022/08/02 11:29:48;;;;;;;2.03;1.80;;;28.10;96.10;;;;;;4833614;29;20109;-37
2022/08/02 11:32:19;;;;;;;1.77;1.50;;;28.00;96.40;;;;;;4844898;29;20116;-34
2022/08/02 11:34:47;;;;;;;3.05;1.60;;;28.00;96.30;;;;;;4833989;29;20038;-36
2022/08/02 11:37:36;;;;;;;3.50;1.70;;;28.10;96.40;;;;;;4837627;29;20065;-31
2022/08/02 11:40:04;;;;;;;2.20;1.67;;;28.10;96.50;;;;;;4839794;29;20491;-36
2022/08/02 11:42:43;;;;;;;3.05;1.55;;;28.10;96.30;;;;;;4836778;29;20048;-37
2022/08/02 11:45:10;;;;;;;1.92;1.30;;;28.30;96.20;;;;;;4841607;29;20034;-36
2022/08/02 11:47:49;;;;;;;1.17;1.08;;;28.30;95.90;;;;;;4851056;29;20485;-38
2022/08/02 11:50:16;;;;;;;1.40;1.30;;;28.10;96.00;;;;;;4840556;29;20038;-30
2022/08/02 11:52:42;;;;;;;1.20;1.10;;;28.00;95.90;;;;;;4832299;29;20543;-41
2022/08/02 11:55:09;;;;;;;1.63;1.35;;;28.00;95.70;;;;;;4840840;29;20418;-39
2022/08/02 11:57:35;;;;;;;3.50;1.50;;;28.00;95.90;;;;;;4837399;29;20058;-45
2022/08/02 12:00:03;;;;;;;1.48;0.98;;;28.20;96.00;;;;;;4839064;29;20028;-38
2022/08/02 12:02:31;;;;;;;2.60;1.30;;;28.50;95.60;;;;;;4838837;29;20069;-44
2022/08/02 12:04:56;;;;;;;1.50;1.17;;;28.70;95.60;;;;;;4817811;29;20543;-38
2022/08/02 12:07:28;;;;;;;3.10;1.08;;;28.80;95.30;;;;;;4840587;29;20094;-38
2022/08/02 12:10:03;;;;;;;2.45;1.20;;;28.70;95.20;;;;;;4834065;29;20452;-37
2022/08/02 12:12:29;;;;;;;2.58;1.10;;;28.60;95.60;;;;;;4835172;29;20057;-37
2022/08/02 12:14:55;;;;;;;2.03;1.63;;;28.60;95.50;;;;;;4833459;29;20494;-37
2022/08/02 12:20:35;;;;;;;3.58;2.00;;;28.70;95.20;;;;;;4831813;29;20045;-36
2022/08/02 12:23:01;;;;;;;;;;;28.60;95.40;;;;;;4835921;29;20029;-39
2022/08/02 12:25:30;;;;;;;2.40;1.75;;;28.60;95.70;;;;;;4841448;29;19920;-35
2022/08/02 12:28:12;;;;;;;3.65;2.20;;;28.70;95.70;;;;;;4819279;29;20037;-35
2022/08/02 12:30:50;;;;;;;1.65;1.40;;;28.90;95.70;;;;;;4836323;29;20511;-40
2022/08/02 12:33:15;;;;;;;2.50;1.27;;;28.90;95.20;;;;;;4833516;29;20554;-39
2022/08/02 12:35:41;;;;;;;4.40;1.40;;;29.10;95.10;;;;;;4833291;29;20090;-39
2022/08/02 12:38:10;;;;;;;18.30;2.83;;;29.20;94.60;;;;;;4835866;29;20030;-40
2022/08/02 12:40:36;;;;;;;1.02;1.00;;;29.20;94.70;;;;;;4834318;29;20530;-35
2022/08/02 12:43:07;;;;;;;5.53;1.35;;;29.20;94.20;;;;;;4834399;29;20046;-38
2022/08/02 12:45:48;;;;;;;1.48;1.20;;;29.20;93.90;;;;;;4838392;29;20034;-34
2022/08/02 12:48:15;;;;;;;1.50;1.35;;;29.20;94.00;;;;;;4835615;29;20037;-39
2022/08/02 12:50:40;;;;;;;1.40;1.30;;;29.30;93.80;;;;;;4832982;29;20033;-32
2022/08/02 12:53:08;;;;;;;0.82;0.80;;;29.40;94.00;;;;;;4832725;29;20025;-38
2022/08/02 12:55:34;;;;;;;;;;;29.40;93.10;;;;;;4836322;29;20029;-42
2022/08/02 12:58:01;;;;;;;;;;;29.50;92.40;;;;;;4847069;29;19908;-39
2022/08/02 13:00:37;;;;;;;4.85;1.15;;;29.60;92.50;;;;;;4837784;29;20651;-39